Gustine, Texas
Current Conditions -  °F | °C
As of 2:55 AM on Thursday 23 Oct 2014 (Local Time) from KMKN Reporting Station
Clear Clear  
Wind Chill: 64°   Ceiling: Unl
Heat Index: 64°   Visibility: 10mi
Dew Point: 60°   Wind: 3mph
Humidity: 84%   Direction: 140°SE
Pressure: 30.11"   Gusts: NA
Location:  31.85°N, 98.4°W
Report Text: KMKN 230755Z AUTO 14003KT 10SM CLR 18/15 A3011 RMK AO2 T01800153
Loading
Personal Weather Stations






























Interactive Weather Map
Tropical Storm Tracking
New forecast layout! Learn more

10-Day Weather Forecast

Advertisements
Track Severe Weather on mobile